sensor_id;sensor_type;location;lat;lon;timestamp;P1;durP1;ratioP1;P2;durP2;ratioP2
44147;SDS011;29810;55.848;37.368;2022-10-16T00:01:58;13.25;;;7.47;;
44147;SDS011;29810;55.848;37.368;2022-10-16T00:05:00;13.13;;;7.50;;
44147;SDS011;29810;55.848;37.368;2022-10-16T00:08:02;14.70;;;7.20;;
44147;SDS011;29810;55.848;37.368;2022-10-16T00:11:09;11.25;;;7.55;;
44147;SDS011;29810;55.848;37.368;2022-10-16T00:14:11;11.98;;;7.00;;
44147;SDS011;29810;55.848;37.368;2022-10-16T00:17:15;13.40;;;6.97;;
44147;SDS011;29810;55.848;37.368;2022-10-16T00:20:16;11.55;;;7.22;;
44147;SDS011;29810;55.848;37.368;2022-10-16T00:23:37;10.40;;;6.70;;
44147;SDS011;29810;55.848;37.368;2022-10-16T00:26:38;13.00;;;7.15;;
44147;SDS011;29810;55.848;37.368;2022-10-16T00:29:41;14.57;;;7.47;;
44147;SDS011;29810;55.848;37.368;2022-10-16T00:32:42;14.02;;;7.30;;
44147;SDS011;29810;55.848;37.368;2022-10-16T00:35:43;11.10;;;7.50;;
44147;SDS011;29810;55.848;37.368;2022-10-16T00:38:45;10.00;;;6.93;;
44147;SDS011;29810;55.848;37.368;2022-10-16T00:41:47;12.93;;;7.18;;
44147;SDS011;29810;55.848;37.368;2022-10-16T00:44:53;12.65;;;7.47;;
44147;SDS011;29810;55.848;37.368;2022-10-16T00:47:57;12.27;;;7.68;;
44147;SDS011;29810;55.848;37.368;2022-10-16T00:50:59;12.18;;;7.45;;
44147;SDS011;29810;55.848;37.368;2022-10-16T00:54:02;10.85;;;6.68;;
44147;SDS011;29810;55.848;37.368;2022-10-16T00:57:05;11.12;;;7.18;;
44147;SDS011;29810;55.848;37.368;2022-10-16T01:00:09;10.82;;;7.25;;
44147;SDS011;29810;55.848;37.368;2022-10-16T01:03:26;12.00;;;6.82;;
44147;SDS011;29810;55.848;37.368;2022-10-16T01:06:42;11.73;;;6.72;;
44147;SDS011;29810;55.848;37.368;2022-10-16T01:10:06;13.55;;;7.25;;
44147;SDS011;29810;55.848;37.368;2022-10-16T01:13:32;9.80;;;7.00;;
44147;SDS011;29810;55.848;37.368;2022-10-16T01:16:46;14.35;;;7.35;;
44147;SDS011;29810;55.848;37.368;2022-10-16T01:23:19;13.13;;;7.53;;
44147;SDS011;29810;55.848;37.368;2022-10-16T01:33:17;13.98;;;8.18;;
44147;SDS011;29810;55.848;37.368;2022-10-16T01:36:34;12.52;;;8.02;;
44147;SDS011;29810;55.848;37.368;2022-10-16T01:39:40;12.93;;;7.70;;
44147;SDS011;29810;55.848;37.368;2022-10-16T01:42:48;12.52;;;7.47;;
44147;SDS011;29810;55.848;37.368;2022-10-16T01:45:56;11.45;;;7.25;;
44147;SDS011;29810;55.848;37.368;2022-10-16T01:49:00;10.35;;;7.45;;
44147;SDS011;29810;55.848;37.368;2022-10-16T01:52:09;10.30;;;7.15;;
44147;SDS011;29810;55.848;37.368;2022-10-16T01:55:14;11.07;;;6.93;;
44147;SDS011;29810;55.848;37.368;2022-10-16T01:58:21;13.38;;;7.35;;
44147;SDS011;29810;55.848;37.368;2022-10-16T02:01:25;11.27;;;7.55;;
44147;SDS011;29810;55.848;37.368;2022-10-16T02:04:32;12.23;;;7.32;;
44147;SDS011;29810;55.848;37.368;2022-10-16T02:07:46;9.60;;;6.72;;
44147;SDS011;29810;55.848;37.368;2022-10-16T02:10:49;11.48;;;7.30;;
44147;SDS011;29810;55.848;37.368;2022-10-16T02:13:53;9.77;;;7.10;;
44147;SDS011;29810;55.848;37.368;2022-10-16T02:16:59;11.35;;;7.25;;
44147;SDS011;29810;55.848;37.368;2022-10-16T02:20:00;11.30;;;7.00;;
44147;SDS011;29810;55.848;37.368;2022-10-16T02:23:04;9.88;;;6.30;;
44147;SDS011;29810;55.848;37.368;2022-10-16T02:26:06;9.95;;;6.03;;
44147;SDS011;29810;55.848;37.368;2022-10-16T02:29:11;9.77;;;6.37;;
44147;SDS011;29810;55.848;37.368;2022-10-16T02:32:16;12.00;;;6.62;;
44147;SDS011;29810;55.848;37.368;2022-10-16T02:35:23;10.30;;;6.78;;
44147;SDS011;29810;55.848;37.368;2022-10-16T02:38:25;10.48;;;6.65;;
44147;SDS011;29810;55.848;37.368;2022-10-16T02:41:28;10.20;;;6.47;;
44147;SDS011;29810;55.848;37.368;2022-10-16T02:44:29;8.63;;;6.50;;
44147;SDS011;29810;55.848;37.368;2022-10-16T02:47:31;10.45;;;7.50;;
44147;SDS011;29810;55.848;37.368;2022-10-16T02:50:32;13.43;;;7.20;;
44147;SDS011;29810;55.848;37.368;2022-10-16T02:53:34;9.40;;;6.35;;
44147;SDS011;29810;55.848;37.368;2022-10-16T02:56:35;10.23;;;6.55;;
44147;SDS011;29810;55.848;37.368;2022-10-16T02:59:37;9.55;;;6.47;;
44147;SDS011;29810;55.848;37.368;2022-10-16T03:02:39;10.20;;;6.87;;
44147;SDS011;29810;55.848;37.368;2022-10-16T03:05:40;12.00;;;6.50;;
44147;SDS011;29810;55.848;37.368;2022-10-16T03:08:44;10.23;;;6.75;;
44147;SDS011;29810;55.848;37.368;2022-10-16T03:11:45;11.85;;;6.62;;
44147;SDS011;29810;55.848;37.368;2022-10-16T03:14:47;10.30;;;6.47;;
44147;SDS011;29810;55.848;37.368;2022-10-16T03:17:49;9.43;;;6.32;;
44147;SDS011;29810;55.848;37.368;2022-10-16T03:20:50;9.00;;;6.43;;
44147;SDS011;29810;55.848;37.368;2022-10-16T03:23:52;9.75;;;6.03;;
44147;SDS011;29810;55.848;37.368;2022-10-16T03:26:53;11.10;;;6.35;;
44147;SDS011;29810;55.848;37.368;2022-10-16T03:29:55;10.07;;;5.95;;
44147;SDS011;29810;55.848;37.368;2022-10-16T03:32:56;9.15;;;6.12;;
44147;SDS011;29810;55.848;37.368;2022-10-16T03:35:57;8.73;;;5.95;;
44147;SDS011;29810;55.848;37.368;2022-10-16T03:38:59;8.55;;;6.05;;
44147;SDS011;29810;55.848;37.368;2022-10-16T03:42:00;9.40;;;6.50;;
44147;SDS011;29810;55.848;37.368;2022-10-16T03:45:02;8.73;;;5.90;;
44147;SDS011;29810;55.848;37.368;2022-10-16T03:48:05;9.85;;;5.60;;
44147;SDS011;29810;55.848;37.368;2022-10-16T03:51:06;9.68;;;5.80;;
44147;SDS011;29810;55.848;37.368;2022-10-16T03:54:09;8.45;;;5.72;;
44147;SDS011;29810;55.848;37.368;2022-10-16T03:57:11;10.48;;;5.97;;
44147;SDS011;29810;55.848;37.368;2022-10-16T04:00:13;8.30;;;5.65;;
44147;SDS011;29810;55.848;37.368;2022-10-16T04:03:14;9.90;;;5.72;;
44147;SDS011;29810;55.848;37.368;2022-10-16T04:06:16;9.27;;;6.00;;
44147;SDS011;29810;55.848;37.368;2022-10-16T04:09:18;10.77;;;6.20;;
44147;SDS011;29810;55.848;37.368;2022-10-16T04:12:19;8.55;;;5.82;;
44147;SDS011;29810;55.848;37.368;2022-10-16T04:15:22;9.30;;;5.97;;
44147;SDS011;29810;55.848;37.368;2022-10-16T04:18:26;9.02;;;6.20;;
44147;SDS011;29810;55.848;37.368;2022-10-16T04:21:28;10.70;;;6.15;;
44147;SDS011;29810;55.848;37.368;2022-10-16T04:24:29;9.57;;;6.22;;
44147;SDS011;29810;55.848;37.368;2022-10-16T04:27:31;10.35;;;6.40;;
44147;SDS011;29810;55.848;37.368;2022-10-16T04:30:32;10.63;;;6.07;;
44147;SDS011;29810;55.848;37.368;2022-10-16T04:33:35;9.90;;;5.82;;
44147;SDS011;29810;55.848;37.368;2022-10-16T04:36:36;9.90;;;6.12;;
44147;SDS011;29810;55.848;37.368;2022-10-16T04:39:37;8.63;;;6.35;;
44147;SDS011;29810;55.848;37.368;2022-10-16T04:42:39;8.57;;;5.87;;
44147;SDS011;29810;55.848;37.368;2022-10-16T04:45:41;9.50;;;5.68;;
44147;SDS011;29810;55.848;37.368;2022-10-16T04:48:43;10.00;;;5.90;;
44147;SDS011;29810;55.848;37.368;2022-10-16T04:51:44;10.60;;;6.20;;
44147;SDS011;29810;55.848;37.368;2022-10-16T04:54:46;7.97;;;5.40;;
44147;SDS011;29810;55.848;37.368;2022-10-16T04:57:48;8.82;;;5.97;;
44147;SDS011;29810;55.848;37.368;2022-10-16T05:00:49;11.88;;;6.47;;
44147;SDS011;29810;55.848;37.368;2022-10-16T05:03:51;9.93;;;5.90;;
44147;SDS011;29810;55.848;37.368;2022-10-16T05:06:52;11.68;;;6.20;;
44147;SDS011;29810;55.848;37.368;2022-10-16T05:09:54;10.63;;;6.07;;
44147;SDS011;29810;55.848;37.368;2022-10-16T05:12:55;9.95;;;6.12;;
44147;SDS011;29810;55.848;37.368;2022-10-16T05:15:57;11.15;;;6.80;;
44147;SDS011;29810;55.848;37.368;2022-10-16T05:18:58;11.30;;;6.65;;
44147;SDS011;29810;55.848;37.368;2022-10-16T05:22:00;10.48;;;6.37;;
44147;SDS011;29810;55.848;37.368;2022-10-16T05:25:01;11.00;;;6.32;;
44147;SDS011;29810;55.848;37.368;2022-10-16T05:28:04;8.55;;;6.03;;
44147;SDS011;29810;55.848;37.368;2022-10-16T05:31:05;10.77;;;6.20;;
44147;SDS011;29810;55.848;37.368;2022-10-16T05:34:08;13.73;;;6.10;;
44147;SDS011;29810;55.848;37.368;2022-10-16T05:37:09;9.23;;;5.68;;
44147;SDS011;29810;55.848;37.368;2022-10-16T05:40:12;10.93;;;6.15;;
44147;SDS011;29810;55.848;37.368;2022-10-16T05:43:13;12.95;;;6.25;;
44147;SDS011;29810;55.848;37.368;2022-10-16T05:46:15;10.63;;;6.47;;
44147;SDS011;29810;55.848;37.368;2022-10-16T05:49:17;9.45;;;6.40;;
44147;SDS011;29810;55.848;37.368;2022-10-16T05:52:18;11.00;;;6.47;;
44147;SDS011;29810;55.848;37.368;2022-10-16T05:55:20;10.50;;;6.10;;
44147;SDS011;29810;55.848;37.368;2022-10-16T05:58:22;8.68;;;6.50;;
44147;SDS011;29810;55.848;37.368;2022-10-16T06:01:23;11.50;;;6.32;;
44147;SDS011;29810;55.848;37.368;2022-10-16T06:04:26;12.80;;;6.53;;
44147;SDS011;29810;55.848;37.368;2022-10-16T06:07:27;12.18;;;6.53;;
44147;SDS011;29810;55.848;37.368;2022-10-16T06:10:29;9.90;;;6.70;;
44147;SDS011;29810;55.848;37.368;2022-10-16T06:13:30;11.73;;;6.62;;
44147;SDS011;29810;55.848;37.368;2022-10-16T06:16:33;9.15;;;6.62;;
44147;SDS011;29810;55.848;37.368;2022-10-16T06:19:35;10.40;;;6.87;;
44147;SDS011;29810;55.848;37.368;2022-10-16T06:22:37;13.73;;;6.62;;
44147;SDS011;29810;55.848;37.368;2022-10-16T06:25:38;11.23;;;6.80;;
44147;SDS011;29810;55.848;37.368;2022-10-16T06:28:40;11.25;;;6.80;;
44147;SDS011;29810;55.848;37.368;2022-10-16T06:31:43;13.82;;;6.80;;
44147;SDS011;29810;55.848;37.368;2022-10-16T06:34:45;10.98;;;6.55;;
44147;SDS011;29810;55.848;37.368;2022-10-16T06:37:46;13.55;;;6.80;;
44147;SDS011;29810;55.848;37.368;2022-10-16T06:40:48;9.40;;;6.45;;
44147;SDS011;29810;55.848;37.368;2022-10-16T06:43:49;9.50;;;6.90;;
44147;SDS011;29810;55.848;37.368;2022-10-16T06:46:51;10.15;;;6.45;;
44147;SDS011;29810;55.848;37.368;2022-10-16T06:49:53;11.90;;;6.90;;
44147;SDS011;29810;55.848;37.368;2022-10-16T06:52:54;10.30;;;6.43;;
44147;SDS011;29810;55.848;37.368;2022-10-16T06:55:56;9.98;;;6.90;;
44147;SDS011;29810;55.848;37.368;2022-10-16T06:58:58;11.90;;;7.00;;
44147;SDS011;29810;55.848;37.368;2022-10-16T07:01:59;12.27;;;6.93;;
44147;SDS011;29810;55.848;37.368;2022-10-16T07:05:01;9.63;;;6.53;;
44147;SDS011;29810;55.848;37.368;2022-10-16T07:08:04;12.43;;;7.22;;
44147;SDS011;29810;55.848;37.368;2022-10-16T07:11:09;10.15;;;6.87;;
44147;SDS011;29810;55.848;37.368;2022-10-16T07:14:16;10.95;;;7.37;;
44147;SDS011;29810;55.848;37.368;2022-10-16T07:17:20;11.95;;;7.30;;
44147;SDS011;29810;55.848;37.368;2022-10-16T07:20:21;11.07;;;6.78;;
44147;SDS011;29810;55.848;37.368;2022-10-16T07:23:23;10.73;;;6.80;;
44147;SDS011;29810;55.848;37.368;2022-10-16T07:26:24;9.77;;;7.07;;
44147;SDS011;29810;55.848;37.368;2022-10-16T07:29:27;10.98;;;6.90;;
44147;SDS011;29810;55.848;37.368;2022-10-16T07:32:28;11.43;;;6.80;;
44147;SDS011;29810;55.848;37.368;2022-10-16T07:35:30;11.45;;;6.60;;
44147;SDS011;29810;55.848;37.368;2022-10-16T07:38:31;13.95;;;7.28;;
44147;SDS011;29810;55.848;37.368;2022-10-16T07:41:33;11.02;;;6.40;;
44147;SDS011;29810;55.848;37.368;2022-10-16T07:44:37;13.65;;;7.20;;
44147;SDS011;29810;55.848;37.368;2022-10-16T07:47:39;12.00;;;7.07;;
44147;SDS011;29810;55.848;37.368;2022-10-16T07:50:40;12.00;;;6.68;;
44147;SDS011;29810;55.848;37.368;2022-10-16T07:53:42;10.88;;;7.03;;
44147;SDS011;29810;55.848;37.368;2022-10-16T07:56:44;12.27;;;7.37;;
44147;SDS011;29810;55.848;37.368;2022-10-16T07:59:46;12.13;;;6.65;;
44147;SDS011;29810;55.848;37.368;2022-10-16T08:02:47;14.27;;;7.07;;
44147;SDS011;29810;55.848;37.368;2022-10-16T08:05:52;9.73;;;6.50;;
44147;SDS011;29810;55.848;37.368;2022-10-16T08:08:54;12.85;;;7.35;;
44147;SDS011;29810;55.848;37.368;2022-10-16T08:11:56;12.57;;;7.30;;
44147;SDS011;29810;55.848;37.368;2022-10-16T08:14:58;14.18;;;6.75;;
44147;SDS011;29810;55.848;37.368;2022-10-16T08:18:01;12.05;;;7.10;;
44147;SDS011;29810;55.848;37.368;2022-10-16T08:21:04;12.88;;;7.12;;
44147;SDS011;29810;55.848;37.368;2022-10-16T08:24:07;12.77;;;6.97;;
44147;SDS011;29810;55.848;37.368;2022-10-16T08:27:09;13.40;;;6.93;;
44147;SDS011;29810;55.848;37.368;2022-10-16T08:30:11;12.80;;;7.25;;
44147;SDS011;29810;55.848;37.368;2022-10-16T08:33:12;12.43;;;7.12;;
44147;SDS011;29810;55.848;37.368;2022-10-16T08:36:15;16.70;;;7.35;;
44147;SDS011;29810;55.848;37.368;2022-10-16T08:39:18;16.85;;;7.03;;
44147;SDS011;29810;55.848;37.368;2022-10-16T08:49:16;12.37;;;7.18;;
44147;SDS011;29810;55.848;37.368;2022-10-16T08:52:18;11.15;;;6.70;;
44147;SDS011;29810;55.848;37.368;2022-10-16T08:58:43;10.05;;;6.47;;
44147;SDS011;29810;55.848;37.368;2022-10-16T09:01:47;12.00;;;7.00;;
44147;SDS011;29810;55.848;37.368;2022-10-16T09:08:18;8.88;;;6.12;;
44147;SDS011;29810;55.848;37.368;2022-10-16T09:11:33;11.02;;;5.80;;
44147;SDS011;29810;55.848;37.368;2022-10-16T09:21:35;8.77;;;6.07;;
44147;SDS011;29810;55.848;37.368;2022-10-16T09:24:40;10.35;;;5.90;;
44147;SDS011;29810;55.848;37.368;2022-10-16T09:27:44;10.88;;;5.30;;
44147;SDS011;29810;55.848;37.368;2022-10-16T09:30:47;9.55;;;5.65;;
44147;SDS011;29810;55.848;37.368;2022-10-16T09:33:53;11.05;;;4.87;;
44147;SDS011;29810;55.848;37.368;2022-10-16T09:36:58;13.73;;;4.80;;
44147;SDS011;29810;55.848;37.368;2022-10-16T09:40:02;7.47;;;4.60;;
44147;SDS011;29810;55.848;37.368;2022-10-16T09:46:25;13.80;;;5.22;;
44147;SDS011;29810;55.848;37.368;2022-10-16T09:49:34;8.10;;;4.78;;
44147;SDS011;29810;55.848;37.368;2022-10-16T09:52:37;11.88;;;4.93;;
44147;SDS011;29810;55.848;37.368;2022-10-16T09:55:49;9.35;;;4.70;;
44147;SDS011;29810;55.848;37.368;2022-10-16T09:58:54;9.00;;;4.60;;
44147;SDS011;29810;55.848;37.368;2022-10-16T10:02:00;9.52;;;4.75;;
44147;SDS011;29810;55.848;37.368;2022-10-16T10:05:05;9.18;;;4.65;;
44147;SDS011;29810;55.848;37.368;2022-10-16T10:08:18;7.07;;;4.62;;
44147;SDS011;29810;55.848;37.368;2022-10-16T10:11:36;8.20;;;4.30;;
44147;SDS011;29810;55.848;37.368;2022-10-16T10:14:47;11.60;;;4.90;;
44147;SDS011;29810;55.848;37.368;2022-10-16T10:17:51;9.50;;;4.40;;
44147;SDS011;29810;55.848;37.368;2022-10-16T10:20:57;6.87;;;4.50;;
44147;SDS011;29810;55.848;37.368;2022-10-16T10:24:02;12.50;;;4.90;;
44147;SDS011;29810;55.848;37.368;2022-10-16T10:27:11;8.25;;;4.30;;
44147;SDS011;29810;55.848;37.368;2022-10-16T10:30:19;9.90;;;4.80;;
44147;SDS011;29810;55.848;37.368;2022-10-16T10:36:39;9.82;;;4.32;;
44147;SDS011;29810;55.848;37.368;2022-10-16T10:39:43;7.53;;;4.47;;
44147;SDS011;29810;55.848;37.368;2022-10-16T10:46:39;11.52;;;4.87;;
44147;SDS011;29810;55.848;37.368;2022-10-16T10:50:08;7.90;;;4.80;;
44147;SDS011;29810;55.848;37.368;2022-10-16T10:57:06;9.07;;;4.75;;
44147;SDS011;29810;55.848;37.368;2022-10-16T11:00:26;7.07;;;5.10;;
44147;SDS011;29810;55.848;37.368;2022-10-16T11:07:44;8.57;;;4.80;;
44147;SDS011;29810;55.848;37.368;2022-10-16T11:10:52;7.00;;;4.50;;
44147;SDS011;29810;55.848;37.368;2022-10-16T11:17:25;7.87;;;4.80;;
44147;SDS011;29810;55.848;37.368;2022-10-16T11:20:34;10.02;;;5.10;;
44147;SDS011;29810;55.848;37.368;2022-10-16T11:24:20;12.40;;;5.53;;
44147;SDS011;29810;55.848;37.368;2022-10-16T11:27:15;14.13;;;5.20;;
44147;SDS011;29810;55.848;37.368;2022-10-16T11:30:22;8.02;;;5.05;;
44147;SDS011;29810;55.848;37.368;2022-10-16T11:36:38;8.88;;;4.72;;
44147;SDS011;29810;55.848;37.368;2022-10-16T11:39:43;7.05;;;4.68;;
44147;SDS011;29810;55.848;37.368;2022-10-16T11:42:50;7.78;;;4.40;;
44147;SDS011;29810;55.848;37.368;2022-10-16T11:46:02;11.63;;;4.75;;
44147;SDS011;29810;55.848;37.368;2022-10-16T11:49:15;10.50;;;4.93;;
44147;SDS011;29810;55.848;37.368;2022-10-16T11:52:25;7.55;;;5.00;;
44147;SDS011;29810;55.848;37.368;2022-10-16T11:55:40;9.07;;;4.72;;
44147;SDS011;29810;55.848;37.368;2022-10-16T11:58:49;9.02;;;4.70;;
44147;SDS011;29810;55.848;37.368;2022-10-16T12:05:50;9.27;;;4.60;;
44147;SDS011;29810;55.848;37.368;2022-10-16T12:08:53;9.70;;;4.62;;
44147;SDS011;29810;55.848;37.368;2022-10-16T12:11:56;10.43;;;4.90;;
44147;SDS011;29810;55.848;37.368;2022-10-16T12:15:01;8.40;;;4.62;;
44147;SDS011;29810;55.848;37.368;2022-10-16T12:18:22;7.93;;;4.93;;
44147;SDS011;29810;55.848;37.368;2022-10-16T12:21:29;10.93;;;4.87;;
44147;SDS011;29810;55.848;37.368;2022-10-16T12:24:33;9.90;;;4.95;;
44147;SDS011;29810;55.848;37.368;2022-10-16T12:27:39;10.43;;;5.07;;
44147;SDS011;29810;55.848;37.368;2022-10-16T12:30:41;9.20;;;4.60;;
44147;SDS011;29810;55.848;37.368;2022-10-16T12:33:57;8.90;;;4.78;;
44147;SDS011;29810;55.848;37.368;2022-10-16T12:37:47;7.43;;;5.07;;
44147;SDS011;29810;55.848;37.368;2022-10-16T12:40:34;8.77;;;4.50;;
44147;SDS011;29810;55.848;37.368;2022-10-16T12:46:43;8.40;;;4.60;;
44147;SDS011;29810;55.848;37.368;2022-10-16T12:49:48;7.60;;;4.47;;
44147;SDS011;29810;55.848;37.368;2022-10-16T12:52:51;10.30;;;4.62;;
44147;SDS011;29810;55.848;37.368;2022-10-16T13:03:21;9.05;;;5.07;;
44147;SDS011;29810;55.848;37.368;2022-10-16T13:06:42;10.18;;;4.87;;
44147;SDS011;29810;55.848;37.368;2022-10-16T13:16:27;8.48;;;5.35;;
44147;SDS011;29810;55.848;37.368;2022-10-16T13:23:02;9.00;;;5.15;;
44147;SDS011;29810;55.848;37.368;2022-10-16T13:26:23;10.00;;;5.75;;
44147;SDS011;29810;55.848;37.368;2022-10-16T13:29:36;9.98;;;5.95;;
44147;SDS011;29810;55.848;37.368;2022-10-16T13:32:44;10.07;;;5.30;;
44147;SDS011;29810;55.848;37.368;2022-10-16T13:35:49;9.23;;;5.45;;
44147;SDS011;29810;55.848;37.368;2022-10-16T13:39:00;11.55;;;5.40;;
44147;SDS011;29810;55.848;37.368;2022-10-16T13:42:12;9.55;;;5.15;;
44147;SDS011;29810;55.848;37.368;2022-10-16T13:45:17;8.50;;;5.47;;
44147;SDS011;29810;55.848;37.368;2022-10-16T13:48:20;8.63;;;5.37;;
44147;SDS011;29810;55.848;37.368;2022-10-16T13:51:21;10.45;;;5.55;;
44147;SDS011;29810;55.848;37.368;2022-10-16T13:54:23;10.05;;;5.43;;
44147;SDS011;29810;55.848;37.368;2022-10-16T13:57:29;7.70;;;4.95;;
44147;SDS011;29810;55.848;37.368;2022-10-16T14:00:33;9.77;;;5.60;;
44147;SDS011;29810;55.848;37.368;2022-10-16T14:03:34;11.25;;;5.35;;
44147;SDS011;29810;55.848;37.368;2022-10-16T14:06:40;9.18;;;5.70;;
44147;SDS011;29810;55.848;37.368;2022-10-16T14:09:48;9.18;;;5.50;;
44147;SDS011;29810;55.848;37.368;2022-10-16T14:13:03;10.70;;;5.68;;
44147;SDS011;29810;55.848;37.368;2022-10-16T14:16:08;13.05;;;5.53;;
44147;SDS011;29810;55.848;37.368;2022-10-16T14:19:29;9.35;;;5.60;;
44147;SDS011;29810;55.848;37.368;2022-10-16T14:22:38;9.80;;;4.85;;
44147;SDS011;29810;55.848;37.368;2022-10-16T14:25:41;12.43;;;5.45;;
44147;SDS011;29810;55.848;37.368;2022-10-16T14:28:43;12.07;;;5.35;;
44147;SDS011;29810;55.848;37.368;2022-10-16T14:34:58;14.07;;;6.47;;
44147;SDS011;29810;55.848;37.368;2022-10-16T14:38:00;13.62;;;7.07;;
44147;SDS011;29810;55.848;37.368;2022-10-16T14:41:04;13.38;;;7.18;;
44147;SDS011;29810;55.848;37.368;2022-10-16T14:44:09;17.35;;;7.25;;
44147;SDS011;29810;55.848;37.368;2022-10-16T14:47:18;14.07;;;7.40;;
44147;SDS011;29810;55.848;37.368;2022-10-16T14:50:27;10.95;;;7.12;;
44147;SDS011;29810;55.848;37.368;2022-10-16T14:53:28;11.70;;;7.15;;
44147;SDS011;29810;55.848;37.368;2022-10-16T14:56:31;10.73;;;7.30;;
44147;SDS011;29810;55.848;37.368;2022-10-16T14:59:42;10.52;;;6.95;;
44147;SDS011;29810;55.848;37.368;2022-10-16T15:02:47;15.35;;;7.22;;
44147;SDS011;29810;55.848;37.368;2022-10-16T15:05:50;12.52;;;7.32;;
44147;SDS011;29810;55.848;37.368;2022-10-16T15:08:52;12.77;;;7.95;;
44147;SDS011;29810;55.848;37.368;2022-10-16T15:11:53;14.32;;;7.90;;
44147;SDS011;29810;55.848;37.368;2022-10-16T15:14:55;12.25;;;6.72;;
44147;SDS011;29810;55.848;37.368;2022-10-16T15:17:56;14.55;;;7.15;;
44147;SDS011;29810;55.848;37.368;2022-10-16T15:20:59;9.80;;;7.10;;
44147;SDS011;29810;55.848;37.368;2022-10-16T15:24:00;13.38;;;6.68;;
44147;SDS011;29810;55.848;37.368;2022-10-16T15:27:02;11.48;;;7.25;;
44147;SDS011;29810;55.848;37.368;2022-10-16T15:30:04;11.05;;;6.85;;
44147;SDS011;29810;55.848;37.368;2022-10-16T15:33:10;11.73;;;6.82;;
44147;SDS011;29810;55.848;37.368;2022-10-16T15:36:15;12.25;;;7.75;;
44147;SDS011;29810;55.848;37.368;2022-10-16T15:39:17;15.20;;;7.20;;
44147;SDS011;29810;55.848;37.368;2022-10-16T15:42:20;13.65;;;7.30;;
44147;SDS011;29810;55.848;37.368;2022-10-16T15:45:21;12.77;;;7.12;;
44147;SDS011;29810;55.848;37.368;2022-10-16T15:48:23;15.75;;;7.57;;
44147;SDS011;29810;55.848;37.368;2022-10-16T15:51:25;15.43;;;7.15;;
44147;SDS011;29810;55.848;37.368;2022-10-16T15:54:31;10.20;;;6.55;;
44147;SDS011;29810;55.848;37.368;2022-10-16T15:57:33;12.75;;;6.47;;
44147;SDS011;29810;55.848;37.368;2022-10-16T16:00:35;12.65;;;7.07;;
44147;SDS011;29810;55.848;37.368;2022-10-16T16:03:37;12.85;;;6.68;;
44147;SDS011;29810;55.848;37.368;2022-10-16T16:06:42;12.13;;;6.30;;
44147;SDS011;29810;55.848;37.368;2022-10-16T16:09:45;14.43;;;7.28;;
44147;SDS011;29810;55.848;37.368;2022-10-16T16:12:47;9.93;;;6.12;;
44147;SDS011;29810;55.848;37.368;2022-10-16T16:15:56;11.60;;;6.22;;
44147;SDS011;29810;55.848;37.368;2022-10-16T16:19:04;10.02;;;6.50;;
44147;SDS011;29810;55.848;37.368;2022-10-16T16:22:09;10.75;;;6.12;;
44147;SDS011;29810;55.848;37.368;2022-10-16T16:25:10;11.95;;;6.18;;
44147;SDS011;29810;55.848;37.368;2022-10-16T16:28:13;11.12;;;5.82;;
44147;SDS011;29810;55.848;37.368;2022-10-16T16:31:15;12.35;;;6.18;;
44147;SDS011;29810;55.848;37.368;2022-10-16T16:34:21;10.82;;;5.95;;
44147;SDS011;29810;55.848;37.368;2022-10-16T16:37:26;10.90;;;6.10;;
44147;SDS011;29810;55.848;37.368;2022-10-16T16:40:29;9.05;;;5.53;;
44147;SDS011;29810;55.848;37.368;2022-10-16T16:43:30;11.85;;;6.00;;
44147;SDS011;29810;55.848;37.368;2022-10-16T16:46:32;10.80;;;5.95;;
44147;SDS011;29810;55.848;37.368;2022-10-16T16:49:40;11.95;;;6.37;;
44147;SDS011;29810;55.848;37.368;2022-10-16T16:52:42;13.38;;;6.45;;
44147;SDS011;29810;55.848;37.368;2022-10-16T16:55:43;10.00;;;6.15;;
44147;SDS011;29810;55.848;37.368;2022-10-16T16:58:45;11.95;;;6.50;;
44147;SDS011;29810;55.848;37.368;2022-10-16T17:01:48;12.80;;;6.30;;
44147;SDS011;29810;55.848;37.368;2022-10-16T17:04:50;11.90;;;6.75;;
44147;SDS011;29810;55.848;37.368;2022-10-16T17:07:51;11.70;;;6.70;;
44147;SDS011;29810;55.848;37.368;2022-10-16T17:10:53;10.20;;;6.80;;
44147;SDS011;29810;55.848;37.368;2022-10-16T17:13:57;11.70;;;5.93;;
44147;SDS011;29810;55.848;37.368;2022-10-16T17:16:59;10.57;;;6.47;;
44147;SDS011;29810;55.848;37.368;2022-10-16T17:20:01;12.40;;;6.75;;
44147;SDS011;29810;55.848;37.368;2022-10-16T17:23:04;10.70;;;6.12;;
44147;SDS011;29810;55.848;37.368;2022-10-16T17:26:06;12.40;;;6.75;;
44147;SDS011;29810;55.848;37.368;2022-10-16T17:29:10;12.02;;;6.43;;
44147;SDS011;29810;55.848;37.368;2022-10-16T17:32:13;11.18;;;5.90;;
44147;SDS011;29810;55.848;37.368;2022-10-16T17:35:15;9.52;;;6.30;;
44147;SDS011;29810;55.848;37.368;2022-10-16T17:38:17;11.88;;;6.53;;
44147;SDS011;29810;55.848;37.368;2022-10-16T17:41:19;10.40;;;6.35;;
44147;SDS011;29810;55.848;37.368;2022-10-16T17:44:23;9.98;;;6.05;;
44147;SDS011;29810;55.848;37.368;2022-10-16T17:47:24;10.60;;;5.80;;
44147;SDS011;29810;55.848;37.368;2022-10-16T17:50:26;11.18;;;5.80;;
44147;SDS011;29810;55.848;37.368;2022-10-16T17:53:27;12.20;;;6.37;;
44147;SDS011;29810;55.848;37.368;2022-10-16T17:56:30;11.05;;;6.00;;
44147;SDS011;29810;55.848;37.368;2022-10-16T17:59:32;11.93;;;6.15;;
44147;SDS011;29810;55.848;37.368;2022-10-16T18:02:33;9.00;;;6.15;;
44147;SDS011;29810;55.848;37.368;2022-10-16T18:05:36;9.13;;;6.00;;
44147;SDS011;29810;55.848;37.368;2022-10-16T18:08:38;11.63;;;6.43;;
44147;SDS011;29810;55.848;37.368;2022-10-16T18:11:39;10.38;;;6.55;;
44147;SDS011;29810;55.848;37.368;2022-10-16T18:14:41;9.63;;;6.10;;
44147;SDS011;29810;55.848;37.368;2022-10-16T18:17:43;8.98;;;6.30;;
44147;SDS011;29810;55.848;37.368;2022-10-16T18:20:44;8.63;;;5.90;;
44147;SDS011;29810;55.848;37.368;2022-10-16T18:23:58;9.27;;;5.93;;
44147;SDS011;29810;55.848;37.368;2022-10-16T18:27:01;11.38;;;5.68;;
44147;SDS011;29810;55.848;37.368;2022-10-16T18:30:05;9.27;;;5.95;;
44147;SDS011;29810;55.848;37.368;2022-10-16T18:33:07;10.02;;;6.28;;
44147;SDS011;29810;55.848;37.368;2022-10-16T18:36:10;9.93;;;6.03;;
44147;SDS011;29810;55.848;37.368;2022-10-16T18:39:12;10.10;;;5.97;;
44147;SDS011;29810;55.848;37.368;2022-10-16T18:42:14;12.10;;;6.57;;
44147;SDS011;29810;55.848;37.368;2022-10-16T18:45:16;8.70;;;6.40;;
44147;SDS011;29810;55.848;37.368;2022-10-16T18:48:18;11.23;;;6.18;;
44147;SDS011;29810;55.848;37.368;2022-10-16T18:51:20;10.75;;;6.10;;
44147;SDS011;29810;55.848;37.368;2022-10-16T18:54:24;9.95;;;6.12;;
44147;SDS011;29810;55.848;37.368;2022-10-16T18:57:27;11.88;;;6.12;;
44147;SDS011;29810;55.848;37.368;2022-10-16T19:00:33;10.70;;;6.03;;
44147;SDS011;29810;55.848;37.368;2022-10-16T19:03:34;9.80;;;6.07;;
44147;SDS011;29810;55.848;37.368;2022-10-16T19:06:41;9.48;;;5.90;;
44147;SDS011;29810;55.848;37.368;2022-10-16T19:09:51;9.57;;;5.87;;
44147;SDS011;29810;55.848;37.368;2022-10-16T19:12:56;8.32;;;5.87;;
44147;SDS011;29810;55.848;37.368;2022-10-16T19:16:08;8.02;;;5.82;;
44147;SDS011;29810;55.848;37.368;2022-10-16T19:19:14;10.65;;;6.12;;
44147;SDS011;29810;55.848;37.368;2022-10-16T19:22:29;9.98;;;5.95;;
44147;SDS011;29810;55.848;37.368;2022-10-16T19:25:52;8.38;;;5.57;;
44147;SDS011;29810;55.848;37.368;2022-10-16T19:28:55;11.95;;;5.65;;